Christy T — WDE7137 — position and weather

sailwx.info

Track history (hours):
 
Tides and Currents Weather Stations Pressure Air Temp Water Temp Dewpoint Dewpoint Depression Visibility Wind Speed Wind Dir Waves Ship Positions

Christy T

Owner: Terral RiverService, Inc., Lake Providence, LA. More information available from US FCC via Universal Licensing System and Coast Guard Vessel Documentation Center.

Last reported at 2014-Sep-25 07:33 UTC. Time now 2014-Oct-02 06:34 UTC.
Position N 29°60' W 090°48'.

Length 30 m.

Type: Towing. MMSI: 367389450.

Date/timePositionNaut miles runAvg speedWind from/ knotsBaromVisibWave heightAir tempDewpointWater temp
2014-Sep-25 07:33N 29°60' W 090°48'5 5.1
2014-Sep-25 06:33N 30°02' W 090°42'4 3.7
2014-Sep-25 05:33N 30°02' W 090°38'3 2.5
2014-Sep-25 04:33N 30°03' W 090°35'5 5.2
2014-Sep-25 03:33N 30°03' W 090°29'4 4.1
2014-Sep-25 02:33N 29°60' W 090°26'2 2.2
2014-Sep-25 01:33N 29°59' W 090°24'0 0.0
2014-Sep-25 00:33N 29°59' W 090°24'0 0.0
2014-Sep-24 23:33N 29°59' W 090°24'0 0.0
2014-Sep-24 12:33N 29°59' W 090°24'0 0.0
2014-Sep-24 11:28N 29°59' W 090°24'0 0.0
2014-Sep-24 10:32N 29°59' W 090°24'0 0.0
2014-Sep-24 09:32N 29°59' W 090°24'0 0.0
2014-Sep-24 08:28N 29°59' W 090°24'0 0.0
2014-Sep-24 07:33N 29°59' W 090°24'0 0.0
2014-Sep-24 06:32N 29°59' W 090°24'0 0.0
2014-Sep-24 05:20N 29°59' W 090°24'0 0.0
2014-Sep-24 04:24N 29°59' W 090°24'0 0.0
2014-Sep-24 03:33N 29°59' W 090°24'0 0.0
2014-Sep-24 02:33N 29°59' W 090°24'0 0.0
2014-Sep-24 01:33N 29°59' W 090°24'0 0.0
2014-Sep-24 00:33N 29°59' W 090°24'0 0.0
2014-Sep-23 23:33N 29°59' W 090°24'7 0.7
2014-Sep-23 13:06N 30°03' W 090°31'4 8.2
2014-Sep-23 12:33N 30°03' W 090°36'0 0.4
2014-Sep-23 11:33N 30°03' W 090°36'5 4.8
2014-Sep-23 10:33N 30°02' W 090°42'7 7.1
2014-Sep-23 09:33N 29°59' W 090°49'  
2014-Sep-16 23:04N 29°59' W 090°48'3 5.7
2014-Sep-16 22:33N 30°01' W 090°46'9 4.3
2014-Sep-16 20:33N 30°03' W 090°36'0 0.1
2014-Sep-16 19:20N 30°03' W 090°36'4 0.9
2014-Sep-16 14:21N 30°03' W 090°31'16 8.5
2014-Sep-16 12:30N 29°59' W 090°49'  
Track history (hours):
 
Tides and Currents Weather Stations Pressure Air Temp Water Temp Dewpoint Dewpoint Depression Visibility Wind Speed Wind Dir Waves Ship Positions

Christy T

Owner: Terral RiverService, Inc., Lake Providence, LA. More information available from US FCC via Universal Licensing System and Coast Guard Vessel Documentation Center.

Last reported at 2014-Sep-25 07:33 UTC. Time now 2014-Oct-02 06:34 UTC.
Position N 29°60' W 090°48'.

Length 30 m.

Type: Towing. MMSI: 367389450.

Date/timePositionNaut miles runAvg speedWind from/ knotsBaromVisibWave heightAir tempDewpointWater temp
2014-Sep-25 07:33N 29°60' W 090°48'5 5.1
2014-Sep-25 06:33N 30°02' W 090°42'4 3.7
2014-Sep-25 05:33N 30°02' W 090°38'3 2.5
2014-Sep-25 04:33N 30°03' W 090°35'5 5.2
2014-Sep-25 03:33N 30°03' W 090°29'4 4.1
2014-Sep-25 02:33N 29°60' W 090°26'2 2.2
2014-Sep-25 01:33N 29°59' W 090°24'0 0.0
2014-Sep-25 00:33N 29°59' W 090°24'0 0.0
2014-Sep-24 23:33N 29°59' W 090°24'0 0.0
2014-Sep-24 12:33N 29°59' W 090°24'0 0.0
2014-Sep-24 11:28N 29°59' W 090°24'0 0.0
2014-Sep-24 10:32N 29°59' W 090°24'0 0.0
2014-Sep-24 09:32N 29°59' W 090°24'0 0.0
2014-Sep-24 08:28N 29°59' W 090°24'0 0.0
2014-Sep-24 07:33N 29°59' W 090°24'0 0.0
2014-Sep-24 06:32N 29°59' W 090°24'0 0.0
2014-Sep-24 05:20N 29°59' W 090°24'0 0.0
2014-Sep-24 04:24N 29°59' W 090°24'0 0.0
2014-Sep-24 03:33N 29°59' W 090°24'0 0.0
2014-Sep-24 02:33N 29°59' W 090°24'0 0.0
2014-Sep-24 01:33N 29°59' W 090°24'0 0.0
2014-Sep-24 00:33N 29°59' W 090°24'0 0.0
2014-Sep-23 23:33N 29°59' W 090°24'7 0.7
2014-Sep-23 13:06N 30°03' W 090°31'4 8.2
2014-Sep-23 12:33N 30°03' W 090°36'0 0.4
2014-Sep-23 11:33N 30°03' W 090°36'5 4.8
2014-Sep-23 10:33N 30°02' W 090°42'7 7.1
2014-Sep-23 09:33N 29°59' W 090°49'  
2014-Sep-16 23:04N 29°59' W 090°48'3 5.7
2014-Sep-16 22:33N 30°01' W 090°46'9 4.3
2014-Sep-16 20:33N 30°03' W 090°36'0 0.1
2014-Sep-16 19:20N 30°03' W 090°36'4 0.9
2014-Sep-16 14:21N 30°03' W 090°31'16 8.5
2014-Sep-16 12:30N 29°59' W 090°49'  

Dump ship's entire track history